KTCC/TCC METAR and TAF weather

Enter ICAO airport designator
Station Type Date Time Source
KTCC METAR 2020/08/14 02:53 UTC NOAA

KTCC 140253Z AUTO 12008KT 10SM CLR 31/09 A3001 RMK AO2 SLP083 T03110094 51007


Station Type Date Time Source
KTCC Decoded METAR 2020/08/14 02:53 UTC NOAA

TUCUMCARI MUNICIPAL AIRPORT , NM, United States (KTCC) 35-11N 103-36W 1235M
Aug 13, 2020 - 10:53 PM EDT / 2020.08.14 0253 UTC
Wind: from the ESE (120 degrees) at 9 MPH (8 KT):0
Visibility: 10 mile(s):0
Sky conditions: clear
Temperature: 88.0 F (31.1 C)
Dew Point: 48.9 F (9.4 C)
Relative Humidity: 26%
Pressure (altimeter): 30.01 in. Hg (1016 hPa)
Pressure tendency: 0.02 inches (0.7 hPa) higher than three hours ago
ob: KTCC 140253Z AUTO 12008KT 10SM CLR 31/09 A3001 RMK AO2 SLP083 T03110094 51007
cycle: 3

Station Type Date Time Source
KTCC TAF 2020/08/13 18:42 UTC NOAA

TAF KTCC 131739Z 1318/1418 25007KT P6SM SCT150
FM132100 07007KT P6SM SCT130
FM140000 15008KT P6SM VCSH BKN130
FM140400 VRB05KT P6SM BKN150

Example: see airport list